Walberton, United Kingdom
Current Conditions -  °F | °C
As of 6:20 PM on Tuesday 21 Oct 2014 (Local Time) from EGKA Reporting Station
Few Clouds Few Clouds  
Wind Chill: 11°   Ceiling: Unl
Heat Index: 11°   Visibility: 6mi
Dew Point:   Wind: 21mph
Humidity: 58%   Direction: 290°WNW
Pressure: 29.94"   Gusts: 32mph
Location:  50.84°N, 0.62°W
Report Text: EGKA 211720Z 29018G28KT 9999 FEW030 11/03 Q1014
Loading
Personal Weather Stations






























Interactive Weather Map
Tropical Storm Tracking
New forecast layout! Learn more

10-Day Weather Forecast

Advertisements
Track Severe Weather on mobile